createdAt,value
2019-02-06T00:01:31.683Z,-2.09
2019-02-06T00:04:02.596Z,-2.06
2019-02-06T00:06:34.861Z,-2.07
2019-02-06T00:09:14.004Z,-2.06
2019-02-06T00:11:44.647Z,-2.03
2019-02-06T00:14:15.321Z,-2.01
2019-02-06T00:16:45.889Z,-1.99
2019-02-06T00:19:16.483Z,-1.97
2019-02-06T00:21:47.573Z,-1.95
2019-02-06T00:24:18.219Z,-1.95
2019-02-06T00:26:49.000Z,-1.92
2019-02-06T00:29:19.626Z,-1.94
2019-02-06T00:31:50.163Z,-1.94
2019-02-06T00:34:21.699Z,-1.91
2019-02-06T00:36:53.091Z,-1.92
2019-02-06T00:39:23.754Z,-1.87
2019-02-06T00:41:54.238Z,-1.85
2019-02-06T00:44:24.861Z,-1.82
2019-02-06T00:46:55.798Z,-1.80
2019-02-06T00:49:26.810Z,-1.76
2019-02-06T00:51:57.403Z,-1.80
2019-02-06T00:54:27.744Z,-1.81
2019-02-06T00:56:59.675Z,-1.85
2019-02-06T00:59:30.556Z,-1.87
2019-02-06T01:02:02.455Z,-1.82
2019-02-06T01:04:33.118Z,-1.78
2019-02-06T01:07:03.885Z,-1.83
2019-02-06T01:09:35.594Z,-1.80
2019-02-06T01:12:06.222Z,-1.82
2019-02-06T01:14:39.427Z,-1.82
2019-02-06T01:17:10.086Z,-1.90
2019-02-06T01:19:40.881Z,-1.85
2019-02-06T01:22:11.507Z,-1.82
2019-02-06T01:24:42.427Z,-1.81
2019-02-06T01:27:13.396Z,-1.79
2019-02-06T01:29:43.897Z,-1.78
2019-02-06T01:32:16.447Z,-1.80
2019-02-06T01:34:46.994Z,-1.84
2019-02-06T01:37:17.596Z,-1.81
2019-02-06T01:39:48.303Z,-1.81
2019-02-06T01:42:18.879Z,-1.87
2019-02-06T01:44:49.776Z,-1.84
2019-02-06T01:47:20.246Z,-1.81
2019-02-06T01:49:50.880Z,-1.77
2019-02-06T01:52:21.477Z,-1.77
2019-02-06T01:54:54.475Z,-1.71
2019-02-06T01:57:25.593Z,-1.70
2019-02-06T01:59:56.175Z,-1.68
2019-02-06T02:02:27.128Z,-1.69
2019-02-06T02:04:57.592Z,-1.68
2019-02-06T02:07:28.246Z,-1.78
2019-02-06T02:09:58.831Z,-1.72
2019-02-06T02:12:30.853Z,-1.66
2019-02-06T02:15:03.739Z,-1.63
2019-02-06T02:17:35.233Z,-1.59
2019-02-06T02:20:08.822Z,-1.51
2019-02-06T02:22:39.344Z,-1.56
2019-02-06T02:25:09.928Z,-1.50
2019-02-06T02:27:40.252Z,-1.40
2019-02-06T02:30:13.523Z,-1.40
2019-02-06T02:32:44.590Z,-1.46
2019-02-06T02:35:15.322Z,-1.43
2019-02-06T02:37:45.758Z,-1.45
2019-02-06T02:40:16.541Z,-1.35
2019-02-06T02:42:47.011Z,-1.41
2019-02-06T02:45:18.895Z,-1.41
2019-02-06T02:47:50.926Z,-1.37
2019-02-06T02:50:21.410Z,-1.34
2019-02-06T02:52:51.931Z,-1.34
2019-02-06T02:55:22.689Z,-1.32
2019-02-06T02:57:54.593Z,-1.44
2019-02-06T03:00:31.516Z,-1.30
2019-02-06T03:03:14.473Z,-1.37
2019-02-06T03:05:44.928Z,-1.35
2019-02-06T03:08:15.400Z,-1.30
2019-02-06T03:10:47.193Z,-1.26
2019-02-06T03:13:19.243Z,-1.27
2019-02-06T03:15:49.658Z,-1.25
2019-02-06T03:18:20.579Z,-1.25
2019-02-06T03:20:51.064Z,-1.33
2019-02-06T03:23:21.812Z,-1.34
2019-02-06T03:25:52.176Z,-1.31
2019-02-06T03:28:22.780Z,-1.31
2019-02-06T03:30:53.492Z,-1.32
2019-02-06T03:33:23.873Z,-1.30
2019-02-06T03:35:54.476Z,-1.35
2019-02-06T03:38:25.300Z,-1.27
2019-02-06T03:40:55.732Z,-1.25
2019-02-06T03:43:26.063Z,-1.25
2019-02-06T03:45:56.774Z,-1.26
2019-02-06T03:48:27.214Z,-1.24
2019-02-06T03:50:57.598Z,-1.13
2019-02-06T03:53:28.249Z,-1.12
2019-02-06T03:55:58.945Z,-1.08
2019-02-06T03:58:32.431Z,-1.01
2019-02-06T04:01:03.542Z,-1.09
2019-02-06T04:03:35.006Z,-1.15
2019-02-06T04:06:06.622Z,-1.20
2019-02-06T04:08:37.200Z,-1.16
2019-02-06T04:11:09.600Z,-1.13
2019-02-06T04:13:40.436Z,-1.08
2019-02-06T04:16:12.390Z,-1.17
2019-02-06T04:18:43.410Z,-1.16
2019-02-06T04:21:14.124Z,-1.12
2019-02-06T04:23:44.812Z,-1.19
2019-02-06T04:26:16.427Z,-1.10
2019-02-06T04:28:46.823Z,-1.08
2019-02-06T04:31:17.709Z,-1.10
2019-02-06T04:33:48.059Z,-1.11
2019-02-06T04:36:19.162Z,-1.16
2019-02-06T04:38:49.705Z,-1.11
2019-02-06T04:41:21.666Z,-1.11
2019-02-06T04:43:52.113Z,-1.08
2019-02-06T04:46:22.462Z,-1.08
2019-02-06T04:48:53.612Z,-1.08
2019-02-06T04:51:23.971Z,-1.05
2019-02-06T04:53:54.615Z,-1.10
2019-02-06T04:56:25.130Z,-1.19
2019-02-06T04:58:55.892Z,-1.13
2019-02-06T05:01:28.394Z,-1.11
2019-02-06T05:03:58.826Z,-1.03
2019-02-06T05:06:29.897Z,-1.01
2019-02-06T05:09:00.666Z,-1.14
2019-02-06T05:11:39.096Z,-1.10
2019-02-06T05:14:10.577Z,-1.12
2019-02-06T05:16:42.011Z,-1.08
2019-02-06T05:19:13.362Z,-1.12
2019-02-06T05:21:43.704Z,-1.12
2019-02-06T05:24:14.436Z,-1.11
2019-02-06T05:26:45.973Z,-1.07
2019-02-06T05:29:16.659Z,-1.08
2019-02-06T05:31:47.353Z,-1.07
2019-02-06T05:34:17.978Z,-1.02
2019-02-06T05:36:50.953Z,-1.01
2019-02-06T05:39:20.503Z,-1.01
2019-02-06T05:41:51.145Z,-0.96
2019-02-06T05:44:23.106Z,-1.02
2019-02-06T05:46:53.751Z,-1.06
2019-02-06T05:49:26.316Z,-1.11
2019-02-06T05:51:56.812Z,-1.11
2019-02-06T05:54:27.499Z,-1.09
2019-02-06T05:56:58.055Z,-1.12
2019-02-06T05:59:28.710Z,-1.03
2019-02-06T06:01:59.419Z,-1.04
2019-02-06T06:04:30.082Z,-1.02
2019-02-06T06:07:00.992Z,-1.05
2019-02-06T06:09:33.303Z,-1.07
2019-02-06T06:12:03.847Z,-1.05
2019-02-06T06:14:34.337Z,-1.02
2019-02-06T06:17:07.501Z,-1.03
2019-02-06T06:19:38.348Z,-1.02
2019-02-06T06:22:09.002Z,-1.01
2019-02-06T06:24:39.634Z,-0.91
2019-02-06T06:27:10.552Z,-0.91
2019-02-06T06:29:40.995Z,-0.86
2019-02-06T06:32:11.511Z,-0.83
2019-02-06T06:34:42.251Z,-0.83
2019-02-06T06:37:12.603Z,-0.91
2019-02-06T06:39:42.998Z,-0.93
2019-02-06T06:42:13.736Z,-0.87
2019-02-06T06:44:44.249Z,-0.88
2019-02-06T06:47:14.626Z,-0.80
2019-02-06T06:49:45.244Z,-0.87
2019-02-06T06:52:15.731Z,-0.81
2019-02-06T06:54:46.589Z,-0.88
2019-02-06T06:57:17.201Z,-0.89
2019-02-06T06:59:47.656Z,-0.91
2019-02-06T07:02:18.388Z,-0.95
2019-02-06T07:04:48.853Z,-0.96
2019-02-06T07:07:19.316Z,-0.92
2019-02-06T07:09:50.174Z,-1.03
2019-02-06T07:12:20.584Z,-0.98
2019-02-06T07:14:51.053Z,-1.03
2019-02-06T07:17:21.804Z,-1.06
2019-02-06T07:19:52.397Z,-0.97
2019-02-06T07:22:22.912Z,-1.00
2019-02-06T07:24:53.614Z,-0.89
2019-02-06T07:27:23.990Z,-1.03
2019-02-06T07:29:54.813Z,-1.02
2019-02-06T07:32:25.170Z,-1.03
2019-02-06T07:34:55.949Z,-1.13
2019-02-06T07:37:26.528Z,-1.06
2019-02-06T07:39:56.927Z,-1.05
2019-02-06T07:42:27.557Z,-1.01
2019-02-06T07:44:58.290Z,-0.97
2019-02-06T07:47:28.787Z,-0.84
2019-02-06T07:49:59.308Z,-0.89
2019-02-06T07:52:29.656Z,-0.91
2019-02-06T07:55:00.064Z,-0.88
2019-02-06T07:57:30.517Z,-0.92
2019-02-06T08:00:00.916Z,-0.91
2019-02-06T08:02:31.363Z,-0.82
2019-02-06T08:05:02.046Z,-0.88
2019-02-06T08:07:32.471Z,-0.80
2019-02-06T08:10:02.949Z,-0.74
2019-02-06T08:12:34.026Z,-0.70
2019-02-06T08:15:05.158Z,-0.61
2019-02-06T08:17:36.172Z,-0.56
2019-02-06T08:20:07.746Z,-0.35
2019-02-06T08:22:38.187Z,-0.43
2019-02-06T08:25:08.967Z,-0.32
2019-02-06T08:27:39.423Z,-0.49
2019-02-06T08:30:17.323Z,-0.50
2019-02-06T08:32:47.855Z,-0.36
2019-02-06T08:35:18.262Z,-0.31
2019-02-06T08:37:50.150Z,-0.30
2019-02-06T08:40:20.982Z,-0.19
2019-02-06T08:42:53.311Z,-0.20
2019-02-06T08:45:25.003Z,-0.07
2019-02-06T08:47:55.549Z,-0.03
2019-02-06T08:50:26.663Z,0.12
2019-02-06T08:52:57.245Z,0.17
2019-02-06T08:55:29.212Z,0.31
2019-02-06T08:57:59.989Z,0.22
2019-02-06T09:00:33.306Z,0.23
2019-02-06T09:03:04.715Z,0.28
2019-02-06T09:05:35.347Z,0.39
2019-02-06T09:08:06.355Z,0.39
2019-02-06T09:10:37.197Z,0.50
2019-02-06T09:13:08.189Z,0.62
2019-02-06T09:15:40.680Z,0.66
2019-02-06T09:18:13.070Z,0.66
2019-02-06T09:20:44.228Z,0.75
2019-02-06T09:23:16.050Z,0.88
2019-02-06T09:25:46.859Z,1.00
2019-02-06T09:28:17.344Z,1.09
2019-02-06T09:30:48.216Z,0.99
2019-02-06T09:33:19.068Z,1.02
2019-02-06T09:35:49.589Z,1.24
2019-02-06T09:38:20.191Z,1.20
2019-02-06T09:40:50.980Z,1.30
2019-02-06T09:43:21.458Z,1.35
2019-02-06T09:45:52.392Z,1.48
2019-02-06T09:48:23.973Z,1.38
2019-02-06T09:50:55.105Z,1.43
2019-02-06T09:53:25.767Z,1.42
2019-02-06T09:55:56.844Z,1.27
2019-02-06T09:58:29.520Z,1.38
2019-02-06T10:01:00.230Z,1.21
2019-02-06T10:03:32.750Z,1.26
2019-02-06T10:06:03.330Z,1.22
2019-02-06T10:08:35.234Z,1.24
2019-02-06T10:11:06.751Z,1.31
2019-02-06T10:13:37.593Z,1.33
2019-02-06T10:16:10.051Z,1.33
2019-02-06T10:18:40.805Z,1.35
2019-02-06T10:21:11.498Z,1.34
2019-02-06T10:23:41.996Z,1.42
2019-02-06T10:26:13.430Z,1.48
2019-02-06T10:28:44.431Z,1.57
2019-02-06T10:31:15.272Z,1.66
2019-02-06T10:33:46.043Z,1.60
2019-02-06T10:36:16.771Z,1.58
2019-02-06T10:38:47.517Z,1.76
2019-02-06T10:41:19.527Z,1.82
2019-02-06T10:43:51.518Z,1.91
2019-02-06T10:46:23.560Z,1.95
2019-02-06T10:48:54.137Z,1.80
2019-02-06T10:51:25.116Z,1.80
2019-02-06T10:53:55.693Z,1.90
2019-02-06T10:56:26.717Z,1.96
2019-02-06T10:58:57.571Z,2.07
2019-02-06T11:01:28.616Z,2.14
2019-02-06T11:04:00.468Z,2.22
2019-02-06T11:06:30.916Z,2.27
2019-02-06T11:09:04.166Z,2.39
2019-02-06T11:11:35.200Z,2.32
2019-02-06T11:14:05.949Z,2.21
2019-02-06T11:16:37.619Z,2.10
2019-02-06T11:19:09.415Z,2.09
2019-02-06T11:21:41.257Z,2.06
2019-02-06T11:24:11.594Z,1.93
2019-02-06T11:26:42.792Z,2.20
2019-02-06T11:29:13.322Z,2.33
2019-02-06T11:31:44.349Z,2.19
2019-02-06T11:34:15.099Z,2.16
2019-02-06T11:36:45.639Z,2.13
2019-02-06T11:39:24.350Z,2.25
2019-02-06T11:41:55.039Z,2.40
2019-02-06T11:44:25.516Z,2.34
2019-02-06T11:46:56.257Z,2.39
2019-02-06T11:49:32.234Z,2.69
2019-02-06T11:52:02.787Z,2.53
2019-02-06T11:54:34.362Z,2.56
2019-02-06T11:57:07.115Z,2.44
2019-02-06T11:59:39.065Z,2.59
2019-02-06T12:02:09.584Z,2.74
2019-02-06T12:04:40.541Z,2.81
2019-02-06T12:07:11.180Z,2.88
2019-02-06T12:09:41.937Z,2.88
2019-02-06T12:12:12.998Z,2.84
2019-02-06T12:14:43.709Z,3.08
2019-02-06T12:17:14.191Z,3.14
2019-02-06T12:19:46.461Z,3.63
2019-02-06T12:22:19.508Z,3.85
2019-02-06T12:24:51.726Z,3.61
2019-02-06T12:27:22.112Z,3.71
2019-02-06T12:29:53.108Z,3.50
2019-02-06T12:32:23.458Z,3.76
2019-02-06T12:34:54.020Z,4.38
2019-02-06T12:37:24.835Z,4.58
2019-02-06T12:39:55.981Z,4.75
2019-02-06T12:42:26.754Z,5.61
2019-02-06T12:44:59.090Z,6.52
2019-02-06T12:47:29.872Z,5.89
2019-02-06T12:50:00.412Z,6.98
2019-02-06T12:52:31.186Z,7.11
2019-02-06T12:55:03.067Z,7.16
2019-02-06T12:57:37.129Z,7.12
2019-02-06T13:00:10.566Z,6.13
2019-02-06T13:02:43.375Z,5.91
2019-02-06T13:05:14.418Z,5.87
2019-02-06T13:07:45.097Z,6.36
2019-02-06T13:10:16.414Z,6.20
2019-02-06T13:12:49.045Z,6.09
2019-02-06T13:15:19.492Z,5.99
2019-02-06T13:17:50.435Z,5.77
2019-02-06T13:20:24.305Z,5.64
2019-02-06T13:22:55.383Z,6.10
2019-02-06T13:25:25.948Z,5.80
2019-02-06T13:27:56.416Z,6.14
2019-02-06T13:30:29.276Z,5.39
2019-02-06T13:33:00.175Z,4.99
2019-02-06T13:35:32.449Z,5.48
2019-02-06T13:38:03.414Z,5.34
2019-02-06T13:40:45.240Z,5.45
2019-02-06T13:43:08.882Z,5.54
2019-02-06T13:45:43.148Z,4.94
2019-02-06T13:48:14.402Z,5.28
2019-02-06T13:50:45.229Z,5.47
2019-02-06T13:53:15.922Z,5.00
2019-02-06T13:55:46.571Z,4.96
2019-02-06T13:58:20.409Z,5.16
2019-02-06T14:00:52.158Z,5.33
2019-02-06T14:03:21.338Z,5.79
2019-02-06T14:05:52.077Z,6.30
2019-02-06T14:08:22.823Z,6.54
2019-02-06T14:11:00.117Z,6.68
2019-02-06T14:13:25.789Z,6.67
2019-02-06T14:15:56.485Z,5.94
2019-02-06T14:18:27.191Z,5.60
2019-02-06T14:20:57.718Z,5.32
2019-02-06T14:23:50.471Z,4.59
2019-02-06T14:26:48.042Z,4.63
2019-02-06T14:30:08.968Z,4.90
2019-02-06T14:33:45.314Z,4.74
2019-02-06T14:36:51.509Z,4.73
2019-02-06T14:39:48.853Z,4.42
2019-02-06T14:42:48.566Z,4.35
2019-02-06T14:45:59.232Z,4.13
2019-02-06T14:49:09.755Z,4.29
2019-02-06T14:52:16.577Z,4.85
2019-02-06T14:55:30.125Z,5.06
2019-02-06T14:58:39.120Z,4.99
2019-02-06T15:01:34.796Z,5.14
2019-02-06T15:04:44.310Z,5.24
2019-02-06T15:08:08.152Z,5.30
2019-02-06T15:10:59.729Z,5.52
2019-02-06T15:14:11.721Z,5.51
2019-02-06T15:17:19.464Z,5.40
2019-02-06T15:20:22.673Z,5.06
2019-02-06T15:23:38.070Z,4.98
2019-02-06T15:26:49.517Z,5.00
2019-02-06T15:29:33.348Z,4.56
2019-02-06T15:32:37.237Z,4.32
2019-02-06T15:36:01.969Z,4.12
2019-02-06T15:39:01.608Z,4.01
2019-02-06T15:42:15.126Z,3.93
2019-02-06T15:45:15.222Z,3.91
2019-02-06T15:47:54.631Z,3.85
2019-02-06T15:50:56.797Z,3.67
2019-02-06T15:54:02.836Z,3.53
2019-02-06T15:57:01.018Z,3.47
2019-02-06T16:00:15.104Z,3.36
2019-02-06T16:03:13.799Z,3.17
2019-02-06T16:06:32.862Z,2.98
2019-02-06T16:09:56.567Z,3.01
2019-02-06T16:12:56.047Z,2.95
2019-02-06T16:15:47.321Z,2.86
2019-02-06T16:18:49.158Z,2.69
2019-02-06T16:21:53.823Z,2.54
2019-02-06T16:24:53.185Z,2.56
2019-02-06T16:27:36.454Z,2.42
2019-02-06T16:30:58.438Z,2.33
2019-02-06T16:34:12.397Z,2.30
2019-02-06T16:36:52.894Z,2.21
2019-02-06T16:40:07.652Z,2.23
2019-02-06T16:43:02.620Z,2.20
2019-02-06T16:46:19.830Z,2.15
2019-02-06T16:49:30.912Z,2.09
2019-02-06T16:52:12.181Z,2.03
2019-02-06T16:55:21.901Z,1.99
2019-02-06T16:58:29.433Z,1.96
2019-02-06T17:01:40.092Z,1.92
2019-02-06T17:04:41.752Z,1.87
2019-02-06T17:07:36.191Z,1.83
2019-02-06T17:10:41.019Z,1.80
2019-02-06T17:13:46.585Z,1.80
2019-02-06T17:16:34.791Z,1.76
2019-02-06T17:19:53.306Z,1.73
2019-02-06T17:22:41.112Z,1.68
2019-02-06T17:25:49.218Z,1.61
2019-02-06T17:28:47.779Z,1.57
2019-02-06T17:31:56.786Z,1.51
2019-02-06T17:35:08.859Z,1.41
2019-02-06T17:38:14.534Z,1.36
2019-02-06T17:41:27.868Z,1.32
2019-02-06T17:44:31.138Z,1.26
2019-02-06T17:47:51.679Z,1.20
2019-02-06T17:50:48.858Z,1.12
2019-02-06T17:53:34.598Z,1.08
2019-02-06T17:56:06.413Z,1.05
2019-02-06T17:58:40.466Z,1.00
2019-02-06T18:01:22.062Z,1.00
2019-02-06T18:03:56.284Z,0.99
2019-02-06T18:06:39.682Z,0.96
2019-02-06T18:09:29.535Z,0.92
2019-02-06T18:12:28.862Z,0.87
2019-02-06T18:15:27.341Z,0.81
2019-02-06T18:18:25.705Z,0.78
2019-02-06T18:21:24.618Z,0.72
2019-02-06T18:24:20.475Z,0.65
2019-02-06T18:27:17.190Z,0.59
2019-02-06T18:30:02.485Z,0.54
2019-02-06T18:32:46.063Z,0.47
2019-02-06T18:35:17.655Z,0.45
2019-02-06T18:37:50.331Z,0.39
2019-02-06T18:40:22.967Z,0.34
2019-02-06T18:42:53.816Z,0.30
2019-02-06T18:45:27.802Z,0.28
2019-02-06T18:48:03.001Z,0.24
2019-02-06T18:50:36.874Z,0.18
2019-02-06T18:53:08.439Z,0.15
2019-02-06T18:55:39.287Z,0.14
2019-02-06T18:58:10.840Z,0.10
2019-02-06T19:00:42.114Z,0.08
2019-02-06T19:03:16.818Z,-0.02
2019-02-06T19:05:48.129Z,-0.02
2019-02-06T19:08:19.107Z,-0.04
2019-02-06T19:10:50.821Z,-0.08
2019-02-06T19:13:21.633Z,-0.12
2019-02-06T19:15:56.489Z,-0.17
2019-02-06T19:18:26.390Z,-0.21
2019-02-06T19:20:57.495Z,-0.30
2019-02-06T19:23:50.184Z,-0.28
2019-02-06T19:26:20.649Z,-0.31
2019-02-06T19:28:51.118Z,-0.34
2019-02-06T19:31:21.721Z,-0.36
2019-02-06T19:33:53.094Z,-0.40
2019-02-06T19:36:24.654Z,-0.44
2019-02-06T19:38:55.300Z,-0.48
2019-02-06T19:41:25.745Z,-0.52
2019-02-06T19:43:56.315Z,-0.54
2019-02-06T19:46:26.784Z,-0.55
2019-02-06T19:48:58.016Z,-0.56
2019-02-06T19:51:28.813Z,-0.60
2019-02-06T19:53:59.268Z,-0.58
2019-02-06T19:56:30.223Z,-0.63
2019-02-06T19:59:01.141Z,-0.65
2019-02-06T20:01:31.794Z,-0.67
2019-02-06T20:04:02.448Z,-0.65
2019-02-06T20:06:34.503Z,-0.67
2019-02-06T20:09:13.167Z,-0.75
2019-02-06T20:11:43.683Z,-0.75
2019-02-06T20:14:14.244Z,-0.75
2019-02-06T20:16:44.772Z,-0.78
2019-02-06T20:19:15.139Z,-0.79
2019-02-06T20:21:46.067Z,-0.83
2019-02-06T20:24:16.598Z,-0.85
2019-02-06T20:26:47.363Z,-0.87
2019-02-06T20:29:18.074Z,-0.90
2019-02-06T20:31:49.119Z,-0.92
2019-02-06T20:34:19.795Z,-0.95
2019-02-06T20:36:50.657Z,-0.96
2019-02-06T20:39:21.127Z,-0.97
2019-02-06T20:41:51.625Z,-0.99
2019-02-06T20:44:22.114Z,-1.02
2019-02-06T20:46:55.751Z,-1.06
2019-02-06T20:49:25.120Z,-1.09
2019-02-06T20:51:56.093Z,-1.13
2019-02-06T20:54:26.716Z,-1.24
2019-02-06T20:56:58.367Z,-1.24
2019-02-06T20:59:28.926Z,-1.26
2019-02-06T21:01:59.736Z,-1.31
2019-02-06T21:04:30.310Z,-1.33
2019-02-06T21:07:00.779Z,-1.36
2019-02-06T21:09:31.184Z,-1.40
2019-02-06T21:12:01.909Z,-1.43
2019-02-06T21:14:32.647Z,-1.46
2019-02-06T21:17:03.213Z,-1.50
2019-02-06T21:19:33.881Z,-1.52
2019-02-06T21:22:04.435Z,-1.54
2019-02-06T21:24:34.945Z,-1.57
2019-02-06T21:27:06.738Z,-1.58
2019-02-06T21:29:37.530Z,-1.59
2019-02-06T21:32:09.494Z,-1.59
2019-02-06T21:34:40.145Z,-1.57
2019-02-06T21:37:10.531Z,-1.59
2019-02-06T21:39:40.981Z,-1.61
2019-02-06T21:42:11.426Z,-1.61
2019-02-06T21:44:41.996Z,-1.64
2019-02-06T21:47:12.597Z,-1.64
2019-02-06T21:49:43.215Z,-1.66
2019-02-06T21:52:14.095Z,-1.68
2019-02-06T21:54:45.867Z,-1.72
2019-02-06T21:57:16.513Z,-1.75
2019-02-06T21:59:48.457Z,-1.76
2019-02-06T22:02:18.856Z,-1.76
2019-02-06T22:04:49.220Z,-1.81
2019-02-06T22:07:19.814Z,-1.81
2019-02-06T22:09:50.210Z,-1.80
2019-02-06T22:12:21.163Z,-1.81
2019-02-06T22:14:51.769Z,-1.81
2019-02-06T22:17:22.207Z,-1.81
2019-02-06T22:19:52.690Z,-1.81
2019-02-06T22:22:23.491Z,-1.83
2019-02-06T22:24:54.354Z,-1.84
2019-02-06T22:27:25.531Z,-1.85
2019-02-06T22:29:58.519Z,-1.84
2019-02-06T22:32:29.135Z,-1.87
2019-02-06T22:35:00.443Z,-1.88
2019-02-06T22:37:31.207Z,-1.90
2019-02-06T22:40:02.535Z,-1.94
2019-02-06T22:42:33.252Z,-1.94
2019-02-06T22:45:04.305Z,-1.96
2019-02-06T22:47:34.926Z,-2.00
2019-02-06T22:50:09.051Z,-1.99
2019-02-06T22:52:40.617Z,-2.01
2019-02-06T22:55:12.412Z,-2.08
2019-02-06T22:57:43.906Z,-2.08
2019-02-06T23:00:46.916Z,-2.10
2019-02-06T23:03:24.674Z,-2.12
2019-02-06T23:05:55.202Z,-2.13
2019-02-06T23:08:28.012Z,-2.12
2019-02-06T23:10:58.967Z,-2.16
2019-02-06T23:13:29.604Z,-2.16
2019-02-06T23:16:00.041Z,-2.16
2019-02-06T23:18:30.402Z,-2.20
2019-02-06T23:21:01.952Z,-2.21
2019-02-06T23:23:32.314Z,-2.20
2019-02-06T23:26:03.042Z,-2.21
2019-02-06T23:28:34.154Z,-2.23
2019-02-06T23:31:05.647Z,-2.23
2019-02-06T23:33:38.077Z,-2.27
2019-02-06T23:36:10.083Z,-2.28
2019-02-06T23:38:40.944Z,-2.29
2019-02-06T23:41:11.468Z,-2.31
2019-02-06T23:43:43.308Z,-2.32
2019-02-06T23:46:13.714Z,-2.33
2019-02-06T23:48:44.470Z,-2.35
2019-02-06T23:51:15.252Z,-2.36
2019-02-06T23:53:46.215Z,-2.38
2019-02-06T23:56:16.891Z,-2.40
2019-02-06T23:58:47.610Z,-2.39
